sensor_id;sensor_type;location;lat;lon;timestamp;P1;durP1;ratioP1;P2;durP2;ratioP2
5869;SDS011;2961;47.702;9.410;2022-07-05T00:00:52;2.70;;;2.53;;
5869;SDS011;2961;47.702;9.410;2022-07-05T00:03:19;11.57;;;3.20;;
5869;SDS011;2961;47.702;9.410;2022-07-05T00:05:46;7.27;;;3.37;;
5869;SDS011;2961;47.702;9.410;2022-07-05T00:08:13;3.20;;;2.93;;
5869;SDS011;2961;47.702;9.410;2022-07-05T00:10:40;4.97;;;3.30;;
5869;SDS011;2961;47.702;9.410;2022-07-05T00:13:07;3.47;;;3.27;;
5869;SDS011;2961;47.702;9.410;2022-07-05T00:15:34;2.53;;;2.33;;
5869;SDS011;2961;47.702;9.410;2022-07-05T00:18:03;6.93;;;3.00;;
5869;SDS011;2961;47.702;9.410;2022-07-05T00:20:30;10.47;;;3.00;;
5869;SDS011;2961;47.702;9.410;2022-07-05T00:22:57;2.50;;;2.30;;
5869;SDS011;2961;47.702;9.410;2022-07-05T00:25:24;7.23;;;3.10;;
5869;SDS011;2961;47.702;9.410;2022-07-05T00:27:50;7.30;;;2.77;;
5869;SDS011;2961;47.702;9.410;2022-07-05T00:30:18;5.40;;;3.17;;
5869;SDS011;2961;47.702;9.410;2022-07-05T00:32:45;6.33;;;3.10;;
5869;SDS011;2961;47.702;9.410;2022-07-05T00:35:14;3.63;;;3.10;;
5869;SDS011;2961;47.702;9.410;2022-07-05T00:37:41;6.33;;;3.43;;
5869;SDS011;2961;47.702;9.410;2022-07-05T00:40:08;4.10;;;3.27;;
5869;SDS011;2961;47.702;9.410;2022-07-05T00:42:35;7.87;;;3.30;;
5869;SDS011;2961;47.702;9.410;2022-07-05T00:45:03;4.77;;;4.10;;
5869;SDS011;2961;47.702;9.410;2022-07-05T00:47:30;11.00;;;4.50;;
5869;SDS011;2961;47.702;9.410;2022-07-05T00:49:57;5.60;;;4.23;;
5869;SDS011;2961;47.702;9.410;2022-07-05T00:52:25;17.83;;;4.17;;
5869;SDS011;2961;47.702;9.410;2022-07-05T00:54:52;6.77;;;3.90;;
5869;SDS011;2961;47.702;9.410;2022-07-05T00:57:20;5.63;;;4.70;;
5869;SDS011;2961;47.702;9.410;2022-07-05T00:59:48;8.70;;;4.97;;
5869;SDS011;2961;47.702;9.410;2022-07-05T01:02:14;7.97;;;4.03;;
5869;SDS011;2961;47.702;9.410;2022-07-05T01:04:41;18.53;;;4.07;;
5869;SDS011;2961;47.702;9.410;2022-07-05T01:07:08;5.60;;;4.60;;
5869;SDS011;2961;47.702;9.410;2022-07-05T01:09:36;10.90;;;4.80;;
5869;SDS011;2961;47.702;9.410;2022-07-05T01:12:04;7.30;;;3.70;;
5869;SDS011;2961;47.702;9.410;2022-07-05T01:14:31;4.20;;;3.90;;
5869;SDS011;2961;47.702;9.410;2022-07-05T01:16:59;6.73;;;3.70;;
5869;SDS011;2961;47.702;9.410;2022-07-05T01:19:26;9.53;;;3.33;;
5869;SDS011;2961;47.702;9.410;2022-07-05T01:21:53;7.60;;;3.43;;
5869;SDS011;2961;47.702;9.410;2022-07-05T01:24:21;7.50;;;3.50;;
5869;SDS011;2961;47.702;9.410;2022-07-05T01:26:49;9.33;;;3.60;;
5869;SDS011;2961;47.702;9.410;2022-07-05T01:29:16;3.30;;;3.00;;
5869;SDS011;2961;47.702;9.410;2022-07-05T01:31:44;3.50;;;3.20;;
5869;SDS011;2961;47.702;9.410;2022-07-05T01:34:10;3.40;;;2.73;;
5869;SDS011;2961;47.702;9.410;2022-07-05T01:36:37;4.93;;;3.30;;
5869;SDS011;2961;47.702;9.410;2022-07-05T01:39:05;7.33;;;3.00;;
5869;SDS011;2961;47.702;9.410;2022-07-05T01:41:34;6.40;;;2.67;;
5869;SDS011;2961;47.702;9.410;2022-07-05T01:44:01;2.80;;;2.60;;
5869;SDS011;2961;47.702;9.410;2022-07-05T01:46:30;5.63;;;2.40;;
5869;SDS011;2961;47.702;9.410;2022-07-05T01:49:03;5.80;;;2.70;;
5869;SDS011;2961;47.702;9.410;2022-07-05T01:51:33;3.40;;;2.53;;
5869;SDS011;2961;47.702;9.410;2022-07-05T01:54:04;5.97;;;3.47;;
5869;SDS011;2961;47.702;9.410;2022-07-05T01:56:31;2.40;;;2.30;;
5869;SDS011;2961;47.702;9.410;2022-07-05T01:58:59;4.60;;;2.40;;
5869;SDS011;2961;47.702;9.410;2022-07-05T02:01:33;4.43;;;3.20;;
5869;SDS011;2961;47.702;9.410;2022-07-05T02:04:01;11.43;;;4.00;;
5869;SDS011;2961;47.702;9.410;2022-07-05T02:06:30;5.13;;;4.50;;
5869;SDS011;2961;47.702;9.410;2022-07-05T02:08:57;9.90;;;4.63;;
5869;SDS011;2961;47.702;9.410;2022-07-05T02:11:24;6.13;;;4.60;;
5869;SDS011;2961;47.702;9.410;2022-07-05T02:13:51;6.10;;;5.53;;
5869;SDS011;2961;47.702;9.410;2022-07-05T02:16:21;6.47;;;5.33;;
5869;SDS011;2961;47.702;9.410;2022-07-05T02:18:48;7.40;;;5.67;;
5869;SDS011;2961;47.702;9.410;2022-07-05T02:21:15;7.80;;;5.77;;
5869;SDS011;2961;47.702;9.410;2022-07-05T02:23:42;10.13;;;6.13;;
5869;SDS011;2961;47.702;9.410;2022-07-05T02:26:09;5.33;;;4.80;;
5869;SDS011;2961;47.702;9.410;2022-07-05T02:28:37;7.20;;;5.50;;
5869;SDS011;2961;47.702;9.410;2022-07-05T02:31:04;17.43;;;5.80;;
5869;SDS011;2961;47.702;9.410;2022-07-05T02:33:33;6.53;;;5.20;;
5869;SDS011;2961;47.702;9.410;2022-07-05T02:36:04;9.37;;;5.50;;
5869;SDS011;2961;47.702;9.410;2022-07-05T02:38:33;8.23;;;5.37;;
5869;SDS011;2961;47.702;9.410;2022-07-05T02:40:59;8.53;;;4.83;;
5869;SDS011;2961;47.702;9.410;2022-07-05T02:43:26;16.87;;;5.20;;
5869;SDS011;2961;47.702;9.410;2022-07-05T02:45:53;12.70;;;5.13;;
5869;SDS011;2961;47.702;9.410;2022-07-05T02:48:20;10.27;;;5.37;;
5869;SDS011;2961;47.702;9.410;2022-07-05T02:50:48;10.87;;;5.80;;
5869;SDS011;2961;47.702;9.410;2022-07-05T02:53:15;13.37;;;5.27;;
5869;SDS011;2961;47.702;9.410;2022-07-05T02:55:42;11.23;;;6.27;;
5869;SDS011;2961;47.702;9.410;2022-07-05T02:58:09;10.93;;;5.83;;
5869;SDS011;2961;47.702;9.410;2022-07-05T03:00:36;5.50;;;4.47;;
5869;SDS011;2961;47.702;9.410;2022-07-05T03:03:03;7.77;;;5.43;;
5869;SDS011;2961;47.702;9.410;2022-07-05T03:05:29;15.60;;;5.73;;
5869;SDS011;2961;47.702;9.410;2022-07-05T03:07:58;13.37;;;5.60;;
5869;SDS011;2961;47.702;9.410;2022-07-05T03:10:24;10.07;;;5.10;;
5869;SDS011;2961;47.702;9.410;2022-07-05T03:12:51;3.93;;;3.60;;
5869;SDS011;2961;47.702;9.410;2022-07-05T03:15:18;4.80;;;3.70;;
5869;SDS011;2961;47.702;9.410;2022-07-05T03:17:45;3.80;;;3.60;;
5869;SDS011;2961;47.702;9.410;2022-07-05T03:20:12;5.23;;;3.80;;
5869;SDS011;2961;47.702;9.410;2022-07-05T03:22:39;3.90;;;3.70;;
5869;SDS011;2961;47.702;9.410;2022-07-05T03:25:07;4.63;;;4.20;;
5869;SDS011;2961;47.702;9.410;2022-07-05T03:27:35;7.23;;;3.67;;
5869;SDS011;2961;47.702;9.410;2022-07-05T03:30:02;12.80;;;4.40;;
5869;SDS011;2961;47.702;9.410;2022-07-05T03:32:30;10.93;;;5.20;;
5869;SDS011;2961;47.702;9.410;2022-07-05T03:34:56;8.80;;;4.60;;
5869;SDS011;2961;47.702;9.410;2022-07-05T03:37:23;15.13;;;5.67;;
5869;SDS011;2961;47.702;9.410;2022-07-05T03:39:50;7.83;;;6.10;;
5869;SDS011;2961;47.702;9.410;2022-07-05T03:42:18;8.10;;;4.20;;
5869;SDS011;2961;47.702;9.410;2022-07-05T03:44:45;13.90;;;5.10;;
5869;SDS011;2961;47.702;9.410;2022-07-05T03:47:13;11.47;;;5.80;;
5869;SDS011;2961;47.702;9.410;2022-07-05T03:49:40;16.40;;;6.40;;
5869;SDS011;2961;47.702;9.410;2022-07-05T03:52:07;10.50;;;5.67;;
5869;SDS011;2961;47.702;9.410;2022-07-05T03:54:34;11.13;;;5.30;;
5869;SDS011;2961;47.702;9.410;2022-07-05T03:57:01;10.63;;;5.03;;
5869;SDS011;2961;47.702;9.410;2022-07-05T03:59:29;10.37;;;5.17;;
5869;SDS011;2961;47.702;9.410;2022-07-05T04:01:56;8.13;;;5.30;;
5869;SDS011;2961;47.702;9.410;2022-07-05T04:04:23;7.47;;;5.87;;
5869;SDS011;2961;47.702;9.410;2022-07-05T04:06:49;5.57;;;4.53;;
5869;SDS011;2961;47.702;9.410;2022-07-05T04:09:31;8.23;;;4.50;;
5869;SDS011;2961;47.702;9.410;2022-07-05T04:11:58;7.00;;;5.73;;
5869;SDS011;2961;47.702;9.410;2022-07-05T04:14:25;7.53;;;5.80;;
5869;SDS011;2961;47.702;9.410;2022-07-05T04:16:54;6.43;;;5.93;;
5869;SDS011;2961;47.702;9.410;2022-07-05T04:19:21;11.23;;;4.70;;
5869;SDS011;2961;47.702;9.410;2022-07-05T04:21:47;15.10;;;6.40;;
5869;SDS011;2961;47.702;9.410;2022-07-05T04:24:14;12.53;;;4.87;;
5869;SDS011;2961;47.702;9.410;2022-07-05T04:26:41;8.03;;;5.20;;
5869;SDS011;2961;47.702;9.410;2022-07-05T04:29:08;9.70;;;5.57;;
5869;SDS011;2961;47.702;9.410;2022-07-05T04:31:35;21.17;;;5.43;;
5869;SDS011;2961;47.702;9.410;2022-07-05T04:34:03;10.20;;;5.17;;
5869;SDS011;2961;47.702;9.410;2022-07-05T04:36:30;9.17;;;5.50;;
5869;SDS011;2961;47.702;9.410;2022-07-05T04:38:57;5.90;;;5.30;;
5869;SDS011;2961;47.702;9.410;2022-07-05T04:41:24;8.07;;;5.10;;
5869;SDS011;2961;47.702;9.410;2022-07-05T04:43:51;8.07;;;5.10;;
5869;SDS011;2961;47.702;9.410;2022-07-05T04:46:18;5.10;;;4.80;;
5869;SDS011;2961;47.702;9.410;2022-07-05T04:48:45;14.00;;;4.97;;
5869;SDS011;2961;47.702;9.410;2022-07-05T04:51:13;7.10;;;4.73;;
5869;SDS011;2961;47.702;9.410;2022-07-05T04:53:40;12.23;;;5.40;;
5869;SDS011;2961;47.702;9.410;2022-07-05T04:56:07;13.43;;;4.87;;
5869;SDS011;2961;47.702;9.410;2022-07-05T04:58:34;9.60;;;4.97;;
5869;SDS011;2961;47.702;9.410;2022-07-05T05:01:01;10.33;;;5.50;;
5869;SDS011;2961;47.702;9.410;2022-07-05T05:03:27;9.80;;;5.30;;
5869;SDS011;2961;47.702;9.410;2022-07-05T05:05:54;5.30;;;4.90;;
5869;SDS011;2961;47.702;9.410;2022-07-05T05:08:22;8.33;;;5.60;;
5869;SDS011;2961;47.702;9.410;2022-07-05T05:10:49;8.98;;;5.68;;
5869;SDS011;2961;47.702;9.410;2022-07-05T05:13:16;8.47;;;6.33;;
5869;SDS011;2961;47.702;9.410;2022-07-05T05:15:43;8.13;;;6.07;;
5869;SDS011;2961;47.702;9.410;2022-07-05T05:18:10;12.57;;;6.43;;
5869;SDS011;2961;47.702;9.410;2022-07-05T05:20:38;7.50;;;6.38;;
5869;SDS011;2961;47.702;9.410;2022-07-05T05:23:05;6.70;;;6.10;;
5869;SDS011;2961;47.702;9.410;2022-07-05T05:25:33;6.60;;;5.90;;
5869;SDS011;2961;47.702;9.410;2022-07-05T05:28:01;10.00;;;5.73;;
5869;SDS011;2961;47.702;9.410;2022-07-05T05:30:28;6.67;;;6.07;;
5869;SDS011;2961;47.702;9.410;2022-07-05T05:32:55;6.67;;;6.10;;
5869;SDS011;2961;47.702;9.410;2022-07-05T05:35:22;11.10;;;7.17;;
5869;SDS011;2961;47.702;9.410;2022-07-05T05:37:50;8.83;;;6.67;;
5869;SDS011;2961;47.702;9.410;2022-07-05T05:40:18;8.80;;;6.57;;
5869;SDS011;2961;47.702;9.410;2022-07-05T05:42:47;7.83;;;6.73;;
5869;SDS011;2961;47.702;9.410;2022-07-05T05:45:14;8.03;;;6.77;;
5869;SDS011;2961;47.702;9.410;2022-07-05T05:47:44;7.50;;;6.80;;
5869;SDS011;2961;47.702;9.410;2022-07-05T05:50:12;7.10;;;6.40;;
5869;SDS011;2961;47.702;9.410;2022-07-05T05:52:39;8.57;;;6.50;;
5869;SDS011;2961;47.702;9.410;2022-07-05T05:55:06;13.60;;;7.00;;
5869;SDS011;2961;47.702;9.410;2022-07-05T05:57:33;8.30;;;6.30;;
5869;SDS011;2961;47.702;9.410;2022-07-05T06:00:02;7.20;;;6.50;;
5869;SDS011;2961;47.702;9.410;2022-07-05T06:02:30;11.07;;;7.10;;
5869;SDS011;2961;47.702;9.410;2022-07-05T06:04:57;7.93;;;7.10;;
5869;SDS011;2961;47.702;9.410;2022-07-05T06:07:24;5.67;;;5.17;;
5869;SDS011;2961;47.702;9.410;2022-07-05T06:09:51;6.73;;;6.10;;
5869;SDS011;2961;47.702;9.410;2022-07-05T06:12:18;9.27;;;6.27;;
5869;SDS011;2961;47.702;9.410;2022-07-05T06:14:45;5.73;;;5.10;;
5869;SDS011;2961;47.702;9.410;2022-07-05T06:17:14;10.57;;;7.07;;
5869;SDS011;2961;47.702;9.410;2022-07-05T06:19:40;6.13;;;5.60;;
5869;SDS011;2961;47.702;9.410;2022-07-05T06:22:07;9.13;;;7.13;;
5869;SDS011;2961;47.702;9.410;2022-07-05T06:24:34;5.90;;;5.40;;
5869;SDS011;2961;47.702;9.410;2022-07-05T06:27:01;6.50;;;6.00;;
5869;SDS011;2961;47.702;9.410;2022-07-05T06:29:28;6.10;;;5.50;;
5869;SDS011;2961;47.702;9.410;2022-07-05T06:31:55;8.87;;;6.23;;
5869;SDS011;2961;47.702;9.410;2022-07-05T06:34:23;9.50;;;7.10;;
5869;SDS011;2961;47.702;9.410;2022-07-05T06:36:50;6.60;;;6.00;;
5869;SDS011;2961;47.702;9.410;2022-07-05T06:39:17;6.97;;;5.93;;
5869;SDS011;2961;47.702;9.410;2022-07-05T06:41:44;8.60;;;6.20;;
5869;SDS011;2961;47.702;9.410;2022-07-05T06:44:10;6.20;;;5.60;;
5869;SDS011;2961;47.702;9.410;2022-07-05T06:46:37;9.80;;;6.60;;
5869;SDS011;2961;47.702;9.410;2022-07-05T06:49:04;6.30;;;5.80;;
5869;SDS011;2961;47.702;9.410;2022-07-05T06:51:32;11.03;;;6.57;;
5869;SDS011;2961;47.702;9.410;2022-07-05T06:53:59;9.13;;;6.33;;
5869;SDS011;2961;47.702;9.410;2022-07-05T06:56:26;10.73;;;6.40;;
5869;SDS011;2961;47.702;9.410;2022-07-05T06:58:52;6.40;;;4.67;;
5869;SDS011;2961;47.702;9.410;2022-07-05T07:01:19;6.60;;;6.00;;
5869;SDS011;2961;47.702;9.410;2022-07-05T07:03:46;8.00;;;4.97;;
5869;SDS011;2961;47.702;9.410;2022-07-05T07:06:13;8.20;;;4.50;;
5869;SDS011;2961;47.702;9.410;2022-07-05T07:08:41;9.67;;;4.60;;
5869;SDS011;2961;47.702;9.410;2022-07-05T07:11:25;5.63;;;4.20;;
5869;SDS011;2961;47.702;9.410;2022-07-05T07:13:52;5.60;;;3.90;;
5869;SDS011;2961;47.702;9.410;2022-07-05T07:16:19;4.50;;;3.60;;
5869;SDS011;2961;47.702;9.410;2022-07-05T07:18:46;12.60;;;4.50;;
5869;SDS011;2961;47.702;9.410;2022-07-05T07:21:12;4.40;;;4.10;;
5869;SDS011;2961;47.702;9.410;2022-07-05T07:23:39;4.53;;;4.13;;
5869;SDS011;2961;47.702;9.410;2022-07-05T07:26:07;5.10;;;4.60;;
5869;SDS011;2961;47.702;9.410;2022-07-05T07:28:34;4.50;;;4.07;;
5869;SDS011;2961;47.702;9.410;2022-07-05T07:31:01;6.13;;;4.13;;
5869;SDS011;2961;47.702;9.410;2022-07-05T07:33:28;6.03;;;4.23;;
5869;SDS011;2961;47.702;9.410;2022-07-05T07:35:55;4.57;;;4.17;;
5869;SDS011;2961;47.702;9.410;2022-07-05T07:38:21;8.03;;;5.70;;
5869;SDS011;2961;47.702;9.410;2022-07-05T07:40:51;13.83;;;4.20;;
5869;SDS011;2961;47.702;9.410;2022-07-05T07:43:18;9.93;;;5.50;;
5869;SDS011;2961;47.702;9.410;2022-07-05T07:45:44;6.57;;;4.40;;
5869;SDS011;2961;47.702;9.410;2022-07-05T07:48:11;7.83;;;4.50;;
5869;SDS011;2961;47.702;9.410;2022-07-05T07:50:38;4.03;;;3.73;;
5869;SDS011;2961;47.702;9.410;2022-07-05T07:53:05;4.23;;;3.83;;
5869;SDS011;2961;47.702;9.410;2022-07-05T07:55:32;8.97;;;3.50;;
5869;SDS011;2961;47.702;9.410;2022-07-05T07:58:00;3.60;;;3.30;;
5869;SDS011;2961;47.702;9.410;2022-07-05T08:00:28;8.50;;;3.80;;
5869;SDS011;2961;47.702;9.410;2022-07-05T08:02:57;4.80;;;3.30;;
5869;SDS011;2961;47.702;9.410;2022-07-05T08:05:23;3.90;;;3.03;;
5869;SDS011;2961;47.702;9.410;2022-07-05T08:07:50;3.73;;;3.43;;
5869;SDS011;2961;47.702;9.410;2022-07-05T08:10:17;7.03;;;3.83;;
5869;SDS011;2961;47.702;9.410;2022-07-05T08:12:44;5.80;;;3.47;;
5869;SDS011;2961;47.702;9.410;2022-07-05T08:15:12;3.43;;;3.20;;
5869;SDS011;2961;47.702;9.410;2022-07-05T08:17:39;4.47;;;3.73;;
5869;SDS011;2961;47.702;9.410;2022-07-05T08:20:26;4.40;;;4.00;;
5869;SDS011;2961;47.702;9.410;2022-07-05T08:23:10;4.53;;;3.60;;
5869;SDS011;2961;47.702;9.410;2022-07-05T08:25:37;4.20;;;3.80;;
5869;SDS011;2961;47.702;9.410;2022-07-05T08:28:04;5.27;;;4.33;;
5869;SDS011;2961;47.702;9.410;2022-07-05T08:30:32;4.47;;;3.80;;
5869;SDS011;2961;47.702;9.410;2022-07-05T08:32:59;3.67;;;2.93;;
5869;SDS011;2961;47.702;9.410;2022-07-05T08:35:26;6.33;;;3.90;;
5869;SDS011;2961;47.702;9.410;2022-07-05T08:37:53;5.00;;;3.50;;
5869;SDS011;2961;47.702;9.410;2022-07-05T08:40:20;3.90;;;3.40;;
5869;SDS011;2961;47.702;9.410;2022-07-05T08:42:51;7.80;;;3.10;;
5869;SDS011;2961;47.702;9.410;2022-07-05T08:45:22;6.20;;;3.60;;
5869;SDS011;2961;47.702;9.410;2022-07-05T08:47:53;12.13;;;4.07;;
5869;SDS011;2961;47.702;9.410;2022-07-05T08:50:23;4.20;;;3.03;;
5869;SDS011;2961;47.702;9.410;2022-07-05T08:52:52;6.37;;;3.30;;
5869;SDS011;2961;47.702;9.410;2022-07-05T08:55:19;3.63;;;3.30;;
5869;SDS011;2961;47.702;9.410;2022-07-05T08:57:47;3.50;;;3.20;;
5869;SDS011;2961;47.702;9.410;2022-07-05T09:00:14;2.83;;;2.47;;
5869;SDS011;2961;47.702;9.410;2022-07-05T09:02:41;3.10;;;2.20;;
5869;SDS011;2961;47.702;9.410;2022-07-05T09:05:10;3.50;;;2.87;;
5869;SDS011;2961;47.702;9.410;2022-07-05T09:07:39;2.97;;;2.60;;
5869;SDS011;2961;47.702;9.410;2022-07-05T09:10:14;4.90;;;3.10;;
5869;SDS011;2961;47.702;9.410;2022-07-05T09:12:45;2.43;;;2.10;;
5869;SDS011;2961;47.702;9.410;2022-07-05T09:15:12;4.83;;;2.13;;
5869;SDS011;2961;47.702;9.410;2022-07-05T09:17:43;3.23;;;2.43;;
5869;SDS011;2961;47.702;9.410;2022-07-05T09:20:12;6.20;;;2.93;;
5869;SDS011;2961;47.702;9.410;2022-07-05T09:22:43;2.97;;;2.60;;
5869;SDS011;2961;47.702;9.410;2022-07-05T09:25:19;3.07;;;2.40;;
5869;SDS011;2961;47.702;9.410;2022-07-05T09:27:48;2.43;;;2.00;;
5869;SDS011;2961;47.702;9.410;2022-07-05T09:30:23;2.50;;;2.30;;
5869;SDS011;2961;47.702;9.410;2022-07-05T09:32:59;3.10;;;2.17;;
5869;SDS011;2961;47.702;9.410;2022-07-05T09:35:31;2.60;;;2.40;;
5869;SDS011;2961;47.702;9.410;2022-07-05T09:37:59;3.00;;;2.70;;
5869;SDS011;2961;47.702;9.410;2022-07-05T09:40:28;3.93;;;2.60;;
5869;SDS011;2961;47.702;9.410;2022-07-05T09:43:09;2.28;;;2.17;;
5869;SDS011;2961;47.702;9.410;2022-07-05T09:45:37;4.33;;;3.20;;
5869;SDS011;2961;47.702;9.410;2022-07-05T09:48:04;3.50;;;3.17;;
5869;SDS011;2961;47.702;9.410;2022-07-05T09:50:34;2.40;;;2.30;;
5869;SDS011;2961;47.702;9.410;2022-07-05T09:53:01;2.50;;;2.40;;
5869;SDS011;2961;47.702;9.410;2022-07-05T09:55:28;2.77;;;2.20;;
5869;SDS011;2961;47.702;9.410;2022-07-05T09:57:55;5.03;;;3.00;;
5869;SDS011;2961;47.702;9.410;2022-07-05T10:00:22;2.70;;;2.60;;
5869;SDS011;2961;47.702;9.410;2022-07-05T10:02:50;3.50;;;2.50;;
5869;SDS011;2961;47.702;9.410;2022-07-05T10:05:19;2.87;;;2.57;;
5869;SDS011;2961;47.702;9.410;2022-07-05T10:07:48;2.50;;;2.30;;
5869;SDS011;2961;47.702;9.410;2022-07-05T10:10:16;4.73;;;2.60;;
5869;SDS011;2961;47.702;9.410;2022-07-05T10:12:44;2.40;;;2.20;;
5869;SDS011;2961;47.702;9.410;2022-07-05T10:15:13;2.93;;;2.60;;
5869;SDS011;2961;47.702;9.410;2022-07-05T10:17:42;16.33;;;3.07;;
5869;SDS011;2961;47.702;9.410;2022-07-05T10:20:12;4.03;;;2.47;;
5869;SDS011;2961;47.702;9.410;2022-07-05T10:22:44;7.00;;;2.33;;
5869;SDS011;2961;47.702;9.410;2022-07-05T10:25:13;4.90;;;2.40;;
5869;SDS011;2961;47.702;9.410;2022-07-05T10:27:40;2.13;;;1.93;;
5869;SDS011;2961;47.702;9.410;2022-07-05T10:30:08;2.60;;;2.40;;
5869;SDS011;2961;47.702;9.410;2022-07-05T10:32:37;3.80;;;2.00;;
5869;SDS011;2961;47.702;9.410;2022-07-05T10:35:05;6.80;;;1.93;;
5869;SDS011;2961;47.702;9.410;2022-07-05T10:37:34;4.27;;;2.17;;
5869;SDS011;2961;47.702;9.410;2022-07-05T10:40:02;2.27;;;2.07;;
5869;SDS011;2961;47.702;9.410;2022-07-05T10:42:33;4.80;;;2.47;;
5869;SDS011;2961;47.702;9.410;2022-07-05T10:45:03;3.53;;;2.30;;
5869;SDS011;2961;47.702;9.410;2022-07-05T10:50:50;6.03;;;2.33;;
5869;SDS011;2961;47.702;9.410;2022-07-05T10:53:19;2.28;;;1.90;;
5869;SDS011;2961;47.702;9.410;2022-07-05T10:55:51;2.03;;;1.93;;
5869;SDS011;2961;47.702;9.410;2022-07-05T10:58:27;3.70;;;1.70;;
5869;SDS011;2961;47.702;9.410;2022-07-05T11:04:07;5.60;;;2.00;;
5869;SDS011;2961;47.702;9.410;2022-07-05T11:07:00;2.27;;;2.07;;
5869;SDS011;2961;47.702;9.410;2022-07-05T11:09:28;4.60;;;2.20;;
5869;SDS011;2961;47.702;9.410;2022-07-05T11:12:08;4.00;;;2.30;;
5869;SDS011;2961;47.702;9.410;2022-07-05T11:14:47;1.80;;;1.70;;
5869;SDS011;2961;47.702;9.410;2022-07-05T11:17:22;2.13;;;2.03;;
5869;SDS011;2961;47.702;9.410;2022-07-05T11:20:07;1.90;;;1.30;;
5869;SDS011;2961;47.702;9.410;2022-07-05T11:22:39;3.28;;;1.90;;
5869;SDS011;2961;47.702;9.410;2022-07-05T11:25:08;3.53;;;2.17;;
5869;SDS011;2961;47.702;9.410;2022-07-05T11:27:36;2.50;;;2.07;;
5869;SDS011;2961;47.702;9.410;2022-07-05T11:30:31;1.97;;;1.77;;
5869;SDS011;2961;47.702;9.410;2022-07-05T11:33:25;4.30;;;1.60;;
5869;SDS011;2961;47.702;9.410;2022-07-05T11:35:53;2.20;;;1.70;;
5869;SDS011;2961;47.702;9.410;2022-07-05T11:38:20;5.83;;;1.57;;
5869;SDS011;2961;47.702;9.410;2022-07-05T11:40:47;3.73;;;1.50;;
5869;SDS011;2961;47.702;9.410;2022-07-05T11:43:14;4.20;;;1.73;;
5869;SDS011;2961;47.702;9.410;2022-07-05T11:45:55;2.40;;;1.30;;
5869;SDS011;2961;47.702;9.410;2022-07-05T11:48:23;3.47;;;1.73;;
5869;SDS011;2961;47.702;9.410;2022-07-05T11:50:51;5.67;;;1.33;;
5869;SDS011;2961;47.702;9.410;2022-07-05T11:53:25;2.20;;;1.40;;
5869;SDS011;2961;47.702;9.410;2022-07-05T11:55:53;2.43;;;2.10;;
5869;SDS011;2961;47.702;9.410;2022-07-05T11:58:29;1.67;;;1.60;;
5869;SDS011;2961;47.702;9.410;2022-07-05T12:00:58;2.17;;;2.07;;
5869;SDS011;2961;47.702;9.410;2022-07-05T12:03:26;2.07;;;1.97;;
5869;SDS011;2961;47.702;9.410;2022-07-05T12:05:53;2.97;;;1.73;;
5869;SDS011;2961;47.702;9.410;2022-07-05T12:08:20;5.33;;;2.07;;
5869;SDS011;2961;47.702;9.410;2022-07-05T12:10:47;1.93;;;1.80;;
5869;SDS011;2961;47.702;9.410;2022-07-05T12:13:41;2.10;;;1.58;;
5869;SDS011;2961;47.702;9.410;2022-07-05T12:16:11;1.53;;;1.43;;
5869;SDS011;2961;47.702;9.410;2022-07-05T12:18:48;3.00;;;2.00;;
5869;SDS011;2961;47.702;9.410;2022-07-05T12:21:16;1.70;;;1.40;;
5869;SDS011;2961;47.702;9.410;2022-07-05T12:23:45;2.80;;;1.50;;
5869;SDS011;2961;47.702;9.410;2022-07-05T12:26:13;4.90;;;1.60;;
5869;SDS011;2961;47.702;9.410;2022-07-05T12:28:40;2.53;;;1.30;;
5869;SDS011;2961;47.702;9.410;2022-07-05T12:31:19;4.87;;;1.60;;
5869;SDS011;2961;47.702;9.410;2022-07-05T12:33:48;2.83;;;1.67;;
5869;SDS011;2961;47.702;9.410;2022-07-05T12:36:16;1.43;;;1.33;;
5869;SDS011;2961;47.702;9.410;2022-07-05T12:38:44;2.40;;;1.40;;
5869;SDS011;2961;47.702;9.410;2022-07-05T12:41:11;2.37;;;1.53;;
5869;SDS011;2961;47.702;9.410;2022-07-05T12:43:50;1.37;;;1.37;;
5869;SDS011;2961;47.702;9.410;2022-07-05T12:46:19;1.30;;;1.20;;
5869;SDS011;2961;47.702;9.410;2022-07-05T12:48:51;1.33;;;1.30;;
5869;SDS011;2961;47.702;9.410;2022-07-05T12:51:31;2.07;;;1.73;;
5869;SDS011;2961;47.702;9.410;2022-07-05T12:53:59;2.93;;;1.57;;
5869;SDS011;2961;47.702;9.410;2022-07-05T12:56:47;1.80;;;1.30;;
5869;SDS011;2961;47.702;9.410;2022-07-05T12:59:32;1.67;;;1.27;;
5869;SDS011;2961;47.702;9.410;2022-07-05T13:02:01;8.45;;;1.50;;
5869;SDS011;2961;47.702;9.410;2022-07-05T13:04:28;2.20;;;1.23;;
5869;SDS011;2961;47.702;9.410;2022-07-05T13:06:56;1.27;;;1.17;;
5869;SDS011;2961;47.702;9.410;2022-07-05T13:09:31;1.30;;;1.30;;
5869;SDS011;2961;47.702;9.410;2022-07-05T13:12:06;1.70;;;1.40;;
5869;SDS011;2961;47.702;9.410;2022-07-05T13:14:35;2.23;;;1.23;;
5869;SDS011;2961;47.702;9.410;2022-07-05T13:17:04;3.00;;;1.10;;
5869;SDS011;2961;47.702;9.410;2022-07-05T13:19:31;2.60;;;1.50;;
5869;SDS011;2961;47.702;9.410;2022-07-05T13:21:58;1.20;;;1.10;;
5869;SDS011;2961;47.702;9.410;2022-07-05T13:24:25;6.13;;;1.37;;
5869;SDS011;2961;47.702;9.410;2022-07-05T13:26:52;1.17;;;0.93;;
5869;SDS011;2961;47.702;9.410;2022-07-05T13:29:19;3.87;;;1.20;;
5869;SDS011;2961;47.702;9.410;2022-07-05T13:31:46;3.03;;;1.27;;
5869;SDS011;2961;47.702;9.410;2022-07-05T13:34:15;1.80;;;1.35;;
5869;SDS011;2961;47.702;9.410;2022-07-05T13:36:42;6.30;;;1.40;;
5869;SDS011;2961;47.702;9.410;2022-07-05T13:39:09;5.17;;;1.27;;
5869;SDS011;2961;47.702;9.410;2022-07-05T13:41:36;2.93;;;1.27;;
5869;SDS011;2961;47.702;9.410;2022-07-05T13:44:03;1.37;;;1.27;;
5869;SDS011;2961;47.702;9.410;2022-07-05T13:46:30;1.27;;;1.10;;
5869;SDS011;2961;47.702;9.410;2022-07-05T13:48:57;3.33;;;1.20;;
5869;SDS011;2961;47.702;9.410;2022-07-05T13:51:25;5.17;;;1.43;;
5869;SDS011;2961;47.702;9.410;2022-07-05T13:53:52;3.70;;;1.60;;
5869;SDS011;2961;47.702;9.410;2022-07-05T13:56:19;1.60;;;1.00;;
5869;SDS011;2961;47.702;9.410;2022-07-05T13:58:46;1.40;;;1.30;;
5869;SDS011;2961;47.702;9.410;2022-07-05T14:01:13;6.20;;;1.27;;
5869;SDS011;2961;47.702;9.410;2022-07-05T14:03:40;2.33;;;1.40;;
5869;SDS011;2961;47.702;9.410;2022-07-05T14:06:07;2.90;;;1.20;;
5869;SDS011;2961;47.702;9.410;2022-07-05T14:08:35;2.47;;;1.17;;
5869;SDS011;2961;47.702;9.410;2022-07-05T14:11:02;2.57;;;1.50;;
5869;SDS011;2961;47.702;9.410;2022-07-05T14:13:29;4.30;;;1.40;;
5869;SDS011;2961;47.702;9.410;2022-07-05T14:15:56;1.35;;;1.20;;
5869;SDS011;2961;47.702;9.410;2022-07-05T14:18:22;3.10;;;1.33;;
5869;SDS011;2961;47.702;9.410;2022-07-05T14:20:50;1.20;;;1.03;;
5869;SDS011;2961;47.702;9.410;2022-07-05T14:23:18;3.10;;;1.40;;
5869;SDS011;2961;47.702;9.410;2022-07-05T14:25:46;1.97;;;1.20;;
5869;SDS011;2961;47.702;9.410;2022-07-05T14:28:13;1.30;;;1.20;;
5869;SDS011;2961;47.702;9.410;2022-07-05T14:30:40;1.73;;;1.00;;
5869;SDS011;2961;47.702;9.410;2022-07-05T14:33:09;2.40;;;1.20;;
5869;SDS011;2961;47.702;9.410;2022-07-05T14:35:37;1.97;;;1.40;;
5869;SDS011;2961;47.702;9.410;2022-07-05T14:38:04;1.37;;;1.03;;
5869;SDS011;2961;47.702;9.410;2022-07-05T14:40:32;2.60;;;1.20;;
5869;SDS011;2961;47.702;9.410;2022-07-05T14:43:00;1.17;;;1.17;;
5869;SDS011;2961;47.702;9.410;2022-07-05T14:45:28;4.60;;;1.20;;
5869;SDS011;2961;47.702;9.410;2022-07-05T14:47:55;1.20;;;1.20;;
5869;SDS011;2961;47.702;9.410;2022-07-05T14:50:22;1.37;;;1.27;;
5869;SDS011;2961;47.702;9.410;2022-07-05T14:52:49;2.80;;;1.13;;
5869;SDS011;2961;47.702;9.410;2022-07-05T14:55:16;1.47;;;1.20;;
5869;SDS011;2961;47.702;9.410;2022-07-05T14:57:43;1.63;;;1.10;;
5869;SDS011;2961;47.702;9.410;2022-07-05T15:00:12;1.27;;;1.27;;
5869;SDS011;2961;47.702;9.410;2022-07-05T15:02:41;2.70;;;1.40;;
5869;SDS011;2961;47.702;9.410;2022-07-05T15:05:08;1.83;;;1.40;;
5869;SDS011;2961;47.702;9.410;2022-07-05T15:07:36;1.60;;;1.30;;
5869;SDS011;2961;47.702;9.410;2022-07-05T15:10:04;2.00;;;1.30;;
5869;SDS011;2961;47.702;9.410;2022-07-05T15:12:31;1.00;;;1.00;;
5869;SDS011;2961;47.702;9.410;2022-07-05T15:14:58;3.87;;;1.20;;
5869;SDS011;2961;47.702;9.410;2022-07-05T15:17:26;3.40;;;1.30;;
5869;SDS011;2961;47.702;9.410;2022-07-05T15:19:53;2.07;;;1.33;;
5869;SDS011;2961;47.702;9.410;2022-07-05T15:22:20;1.30;;;1.20;;
5869;SDS011;2961;47.702;9.410;2022-07-05T15:24:48;1.00;;;1.00;;
5869;SDS011;2961;47.702;9.410;2022-07-05T15:27:15;1.20;;;1.13;;